CHNK1: Cheney Lake

Data processed at Wed Dec 06 2017 23:36


All information presented herein is the property of the government of the United States of America and may be revised or deleted at any time without prior notice.
Dissemination of this information without the expressed written consent of the Public Affairs Office, Tulsa District U.S. Army Corps of Engineers is strictly prohibited.
These data are gathered electronically and, as presented, have not undergone any form of quality control. These data are not guaranteed to be valid or correct.
Go to home page.
Go to station list.

Upstream stations:

Downstream station:
Previous Day
Next Day
Current Day
    
SHEF ID:       CHNK1     Cheney Lake
STATION TYPE:  RESERVOIR
Normal Pool:  Bottom =  1392.90, Top =  1421.60

               PRECIP  RIV-FLOW ELEVATION   STORAGE    INFLOW   RELEASE   VOLTAGE
                   in       cfs        ft     ac-ft       cfs       cfs      volt
              Ccp-Rev  Regi-Rev   Ccp-Rev   Ccp-Rev  Regi-Rev  Regi-Rev   Ccp-Rev
(US/Central)
12/04 00:00      0.00      ----   1420.56    157346         0         0     13.70
12/04 01:00      0.00      ----   1420.57    157437         0         0     13.70
12/04 02:00      0.00      ----   1420.56    157346         0         0     13.70
12/04 03:00      0.00      ----   1420.57    157437         0         0     13.70
12/04 04:00      0.00      ----   1420.58    157529         0         0     13.70
12/04 05:00      0.00      ----   1420.59    157620         0         0     13.70
12/04 06:00      0.00      ----   1420.58    157529         0         0     13.70
12/04 07:00      0.00      ----   1420.59    157620       664         0     13.70
12/04 08:00      0.00      ----   1420.58    157529       830         0     13.70
12/04 09:00      0.00      ----   1420.62    157895       913         0     13.70
12/04 10:00      0.00      ----   1420.64    158078       913         0     13.70
12/04 11:00      0.00      ----   1420.65    158169       996         0     13.70
12/04 12:00      0.00      ----   1420.65    158169       415         0     13.70
12/04 13:00      0.00      ----   1420.65    158169       332         0     13.70
12/04 14:00      0.00      ----   1420.70    158627       249         0     13.70
12/04 15:00      0.00      ----   1420.68    158444       249         0     13.70
12/04 16:00      0.00      ----   1420.69    158535       166         0     13.70
12/04 17:00      0.00      ----   1420.69    158535        83         0     13.70
12/04 18:00      0.00      ----   1420.68    158444         0         0     13.70
12/04 19:00      0.00      ----   1420.65    158169         0         0     13.70
12/04 20:00      0.00      ----   1420.66    158261         0         0     13.70
12/04 21:00      0.00      ----   1420.67    158352         0         0     13.70
12/04 22:00      0.00      ----   1420.69    158535         0         0     13.70
12/04 23:00      0.00      ----   1420.66    158261         0         0     13.70